sensor_id;sensor_type;location;lat;lon;timestamp;P1;durP1;ratioP1;P2;durP2;ratioP2
6378;SDS011;3222;48.858;10.128;2023-07-30T00:02:16;4.50;;;3.00;;
6378;SDS011;3222;48.858;10.128;2023-07-30T00:04:43;4.90;;;2.80;;
6378;SDS011;3222;48.858;10.128;2023-07-30T00:07:10;5.77;;;3.03;;
6378;SDS011;3222;48.858;10.128;2023-07-30T00:09:36;2.97;;;2.77;;
6378;SDS011;3222;48.858;10.128;2023-07-30T00:12:03;3.70;;;2.90;;
6378;SDS011;3222;48.858;10.128;2023-07-30T00:14:30;5.67;;;3.03;;
6378;SDS011;3222;48.858;10.128;2023-07-30T00:16:55;4.15;;;3.10;;
6378;SDS011;3222;48.858;10.128;2023-07-30T00:19:21;6.50;;;3.03;;
6378;SDS011;3222;48.858;10.128;2023-07-30T00:21:47;4.57;;;2.63;;
6378;SDS011;3222;48.858;10.128;2023-07-30T00:24:13;3.57;;;2.53;;
6378;SDS011;3222;48.858;10.128;2023-07-30T00:26:38;5.07;;;2.27;;
6378;SDS011;3222;48.858;10.128;2023-07-30T00:29:04;2.23;;;2.00;;
6378;SDS011;3222;48.858;10.128;2023-07-30T00:31:30;10.23;;;2.10;;
6378;SDS011;3222;48.858;10.128;2023-07-30T00:33:55;3.37;;;2.00;;
6378;SDS011;3222;48.858;10.128;2023-07-30T00:36:21;2.27;;;1.80;;
6378;SDS011;3222;48.858;10.128;2023-07-30T00:38:47;2.33;;;1.57;;
6378;SDS011;3222;48.858;10.128;2023-07-30T00:41:12;1.67;;;1.50;;
6378;SDS011;3222;48.858;10.128;2023-07-30T00:43:39;1.80;;;1.52;;
6378;SDS011;3222;48.858;10.128;2023-07-30T00:46:04;1.63;;;1.53;;
6378;SDS011;3222;48.858;10.128;2023-07-30T00:48:30;1.53;;;1.30;;
6378;SDS011;3222;48.858;10.128;2023-07-30T00:50:57;3.93;;;1.60;;
6378;SDS011;3222;48.858;10.128;2023-07-30T00:53:24;3.97;;;1.40;;
6378;SDS011;3222;48.858;10.128;2023-07-30T00:55:52;1.70;;;1.60;;
6378;SDS011;3222;48.858;10.128;2023-07-30T00:58:18;1.20;;;1.10;;
6378;SDS011;3222;48.858;10.128;2023-07-30T01:00:45;4.27;;;1.20;;
6378;SDS011;3222;48.858;10.128;2023-07-30T01:03:12;1.47;;;1.30;;
6378;SDS011;3222;48.858;10.128;2023-07-30T01:05:37;5.83;;;1.17;;
6378;SDS011;3222;48.858;10.128;2023-07-30T01:08:03;1.00;;;1.00;;
6378;SDS011;3222;48.858;10.128;2023-07-30T01:10:29;1.10;;;1.00;;
6378;SDS011;3222;48.858;10.128;2023-07-30T01:12:56;1.63;;;1.17;;
6378;SDS011;3222;48.858;10.128;2023-07-30T01:15:26;1.85;;;1.10;;
6378;SDS011;3222;48.858;10.128;2023-07-30T01:17:53;0.98;;;0.82;;
6378;SDS011;3222;48.858;10.128;2023-07-30T01:20:18;3.50;;;1.00;;
6378;SDS011;3222;48.858;10.128;2023-07-30T01:22:44;2.40;;;0.80;;
6378;SDS011;3222;48.858;10.128;2023-07-30T01:25:10;4.10;;;0.80;;
6378;SDS011;3222;48.858;10.128;2023-07-30T01:27:39;0.70;;;0.70;;
6378;SDS011;3222;48.858;10.128;2023-07-30T01:32:52;2.80;;;0.90;;
6378;SDS011;3222;48.858;10.128;2023-07-30T01:35:20;3.57;;;0.90;;
6378;SDS011;3222;48.858;10.128;2023-07-30T01:37:49;1.50;;;1.10;;
6378;SDS011;3222;48.858;10.128;2023-07-30T01:40:16;3.57;;;1.00;;
6378;SDS011;3222;48.858;10.128;2023-07-30T01:42:42;0.87;;;0.80;;
6378;SDS011;3222;48.858;10.128;2023-07-30T01:45:08;2.50;;;1.10;;
6378;SDS011;3222;48.858;10.128;2023-07-30T01:47:33;1.27;;;1.17;;
6378;SDS011;3222;48.858;10.128;2023-07-30T01:49:59;3.03;;;1.00;;
6378;SDS011;3222;48.858;10.128;2023-07-30T01:52:25;1.23;;;0.90;;
6378;SDS011;3222;48.858;10.128;2023-07-30T01:54:51;1.50;;;1.00;;
6378;SDS011;3222;48.858;10.128;2023-07-30T01:57:17;4.70;;;1.60;;
6378;SDS011;3222;48.858;10.128;2023-07-30T01:59:42;4.30;;;2.03;;
6378;SDS011;3222;48.858;10.128;2023-07-30T02:02:08;2.13;;;1.93;;
6378;SDS011;3222;48.858;10.128;2023-07-30T02:04:34;2.03;;;1.53;;
6378;SDS011;3222;48.858;10.128;2023-07-30T02:06:59;2.13;;;1.40;;
6378;SDS011;3222;48.858;10.128;2023-07-30T02:09:25;1.30;;;1.17;;
6378;SDS011;3222;48.858;10.128;2023-07-30T02:11:51;1.40;;;1.27;;
6378;SDS011;3222;48.858;10.128;2023-07-30T02:14:17;3.17;;;1.83;;
6378;SDS011;3222;48.858;10.128;2023-07-30T02:16:43;1.57;;;1.00;;
6378;SDS011;3222;48.858;10.128;2023-07-30T02:19:09;1.20;;;1.10;;
6378;SDS011;3222;48.858;10.128;2023-07-30T02:21:34;1.30;;;1.10;;
6378;SDS011;3222;48.858;10.128;2023-07-30T02:24:02;3.50;;;1.17;;
6378;SDS011;3222;48.858;10.128;2023-07-30T02:26:28;1.03;;;0.97;;
6378;SDS011;3222;48.858;10.128;2023-07-30T02:28:53;0.90;;;0.90;;
6378;SDS011;3222;48.858;10.128;2023-07-30T02:31:19;1.10;;;1.00;;
6378;SDS011;3222;48.858;10.128;2023-07-30T02:33:45;0.83;;;0.80;;
6378;SDS011;3222;48.858;10.128;2023-07-30T02:36:12;1.07;;;0.80;;
6378;SDS011;3222;48.858;10.128;2023-07-30T02:38:37;0.97;;;0.77;;
6378;SDS011;3222;48.858;10.128;2023-07-30T02:41:03;0.83;;;0.83;;
6378;SDS011;3222;48.858;10.128;2023-07-30T02:43:29;2.30;;;1.00;;
6378;SDS011;3222;48.858;10.128;2023-07-30T02:45:54;1.27;;;1.17;;
6378;SDS011;3222;48.858;10.128;2023-07-30T02:48:20;2.00;;;1.33;;
6378;SDS011;3222;48.858;10.128;2023-07-30T02:50:46;1.40;;;1.30;;
6378;SDS011;3222;48.858;10.128;2023-07-30T02:53:12;1.53;;;1.37;;
6378;SDS011;3222;48.858;10.128;2023-07-30T02:55:37;1.77;;;1.30;;
6378;SDS011;3222;48.858;10.128;2023-07-30T02:58:03;1.30;;;1.30;;
6378;SDS011;3222;48.858;10.128;2023-07-30T03:00:29;1.27;;;1.20;;
6378;SDS011;3222;48.858;10.128;2023-07-30T03:02:55;1.63;;;1.40;;
6378;SDS011;3222;48.858;10.128;2023-07-30T03:05:21;1.50;;;1.40;;
6378;SDS011;3222;48.858;10.128;2023-07-30T03:07:47;1.87;;;1.77;;
6378;SDS011;3222;48.858;10.128;2023-07-30T03:10:12;3.63;;;1.70;;
6378;SDS011;3222;48.858;10.128;2023-07-30T03:12:38;1.80;;;1.70;;
6378;SDS011;3222;48.858;10.128;2023-07-30T03:15:04;2.70;;;1.70;;
6378;SDS011;3222;48.858;10.128;2023-07-30T03:17:30;1.97;;;1.53;;
6378;SDS011;3222;48.858;10.128;2023-07-30T03:19:56;1.67;;;1.57;;
6378;SDS011;3222;48.858;10.128;2023-07-30T03:22:21;2.07;;;1.67;;
6378;SDS011;3222;48.858;10.128;2023-07-30T03:24:47;2.33;;;1.53;;
6378;SDS011;3222;48.858;10.128;2023-07-30T03:27:13;1.43;;;1.40;;
6378;SDS011;3222;48.858;10.128;2023-07-30T03:29:38;1.90;;;1.80;;
6378;SDS011;3222;48.858;10.128;2023-07-30T03:32:04;2.23;;;2.00;;
6378;SDS011;3222;48.858;10.128;2023-07-30T03:34:30;2.37;;;2.27;;
6378;SDS011;3222;48.858;10.128;2023-07-30T03:36:57;2.00;;;1.77;;
6378;SDS011;3222;48.858;10.128;2023-07-30T03:39:25;2.93;;;1.60;;
6378;SDS011;3222;48.858;10.128;2023-07-30T03:41:51;2.23;;;1.90;;
6378;SDS011;3222;48.858;10.128;2023-07-30T03:44:17;2.60;;;1.80;;
6378;SDS011;3222;48.858;10.128;2023-07-30T03:46:43;1.80;;;1.70;;
6378;SDS011;3222;48.858;10.128;2023-07-30T03:49:09;2.23;;;2.10;;
6378;SDS011;3222;48.858;10.128;2023-07-30T03:51:35;4.23;;;1.87;;
6378;SDS011;3222;48.858;10.128;2023-07-30T03:54:01;2.00;;;1.90;;
6378;SDS011;3222;48.858;10.128;2023-07-30T03:56:26;3.30;;;2.10;;
6378;SDS011;3222;48.858;10.128;2023-07-30T03:58:53;1.93;;;1.70;;
6378;SDS011;3222;48.858;10.128;2023-07-30T04:01:19;3.57;;;1.87;;
6378;SDS011;3222;48.858;10.128;2023-07-30T04:03:44;1.80;;;1.63;;
6378;SDS011;3222;48.858;10.128;2023-07-30T04:06:10;1.97;;;1.80;;
6378;SDS011;3222;48.858;10.128;2023-07-30T04:08:36;1.83;;;1.73;;
6378;SDS011;3222;48.858;10.128;2023-07-30T04:11:03;1.93;;;1.83;;
6378;SDS011;3222;48.858;10.128;2023-07-30T04:13:29;1.90;;;1.80;;
6378;SDS011;3222;48.858;10.128;2023-07-30T04:15:55;2.37;;;1.87;;
6378;SDS011;3222;48.858;10.128;2023-07-30T04:18:20;4.07;;;2.00;;
6378;SDS011;3222;48.858;10.128;2023-07-30T04:20:47;2.07;;;1.90;;
6378;SDS011;3222;48.858;10.128;2023-07-30T04:23:13;3.37;;;2.40;;
6378;SDS011;3222;48.858;10.128;2023-07-30T04:25:39;2.40;;;2.20;;
6378;SDS011;3222;48.858;10.128;2023-07-30T04:28:05;3.50;;;2.87;;
6378;SDS011;3222;48.858;10.128;2023-07-30T04:30:31;3.67;;;2.70;;
6378;SDS011;3222;48.858;10.128;2023-07-30T04:32:57;3.60;;;2.70;;
6378;SDS011;3222;48.858;10.128;2023-07-30T04:35:23;4.27;;;2.60;;
6378;SDS011;3222;48.858;10.128;2023-07-30T04:37:48;2.97;;;2.63;;
6378;SDS011;3222;48.858;10.128;2023-07-30T04:40:15;3.57;;;2.47;;
6378;SDS011;3222;48.858;10.128;2023-07-30T04:42:40;4.20;;;2.60;;
6378;SDS011;3222;48.858;10.128;2023-07-30T04:45:06;2.57;;;2.37;;
6378;SDS011;3222;48.858;10.128;2023-07-30T04:47:35;3.17;;;2.93;;
6378;SDS011;3222;48.858;10.128;2023-07-30T04:50:01;4.10;;;3.40;;
6378;SDS011;3222;48.858;10.128;2023-07-30T04:52:26;6.33;;;4.60;;
6378;SDS011;3222;48.858;10.128;2023-07-30T04:54:52;6.10;;;4.90;;
6378;SDS011;3222;48.858;10.128;2023-07-30T04:57:17;5.70;;;4.07;;
6378;SDS011;3222;48.858;10.128;2023-07-30T04:59:43;3.63;;;3.20;;
6378;SDS011;3222;48.858;10.128;2023-07-30T05:02:09;3.83;;;3.10;;
6378;SDS011;3222;48.858;10.128;2023-07-30T05:04:34;2.77;;;2.57;;
6378;SDS011;3222;48.858;10.128;2023-07-30T05:07:00;4.73;;;2.60;;
6378;SDS011;3222;48.858;10.128;2023-07-30T05:09:26;4.13;;;2.50;;
6378;SDS011;3222;48.858;10.128;2023-07-30T05:11:51;3.47;;;3.00;;
6378;SDS011;3222;48.858;10.128;2023-07-30T05:14:17;2.90;;;2.67;;
6378;SDS011;3222;48.858;10.128;2023-07-30T05:16:42;3.13;;;2.50;;
6378;SDS011;3222;48.858;10.128;2023-07-30T05:19:08;2.70;;;2.50;;
6378;SDS011;3222;48.858;10.128;2023-07-30T05:21:34;3.40;;;2.70;;
6378;SDS011;3222;48.858;10.128;2023-07-30T05:23:59;4.53;;;2.33;;
6378;SDS011;3222;48.858;10.128;2023-07-30T05:26:25;2.87;;;2.37;;
6378;SDS011;3222;48.858;10.128;2023-07-30T05:28:51;5.20;;;3.03;;
6378;SDS011;3222;48.858;10.128;2023-07-30T05:31:16;3.27;;;2.97;;
6378;SDS011;3222;48.858;10.128;2023-07-30T05:33:42;3.57;;;2.70;;
6378;SDS011;3222;48.858;10.128;2023-07-30T05:36:07;3.23;;;2.77;;
6378;SDS011;3222;48.858;10.128;2023-07-30T05:38:33;3.80;;;2.60;;
6378;SDS011;3222;48.858;10.128;2023-07-30T05:40:59;3.07;;;2.60;;
6378;SDS011;3222;48.858;10.128;2023-07-30T05:43:25;2.70;;;2.50;;
6378;SDS011;3222;48.858;10.128;2023-07-30T05:45:51;3.23;;;2.70;;
6378;SDS011;3222;48.858;10.128;2023-07-30T05:48:17;2.90;;;2.47;;
6378;SDS011;3222;48.858;10.128;2023-07-30T05:50:42;2.70;;;2.50;;
6378;SDS011;3222;48.858;10.128;2023-07-30T05:53:08;2.63;;;2.43;;
6378;SDS011;3222;48.858;10.128;2023-07-30T05:55:33;3.00;;;2.80;;
6378;SDS011;3222;48.858;10.128;2023-07-30T05:57:59;4.00;;;2.73;;
6378;SDS011;3222;48.858;10.128;2023-07-30T06:00:25;3.70;;;2.73;;
6378;SDS011;3222;48.858;10.128;2023-07-30T06:02:50;2.73;;;2.53;;
6378;SDS011;3222;48.858;10.128;2023-07-30T06:05:16;4.03;;;2.40;;
6378;SDS011;3222;48.858;10.128;2023-07-30T06:07:42;2.67;;;2.47;;
6378;SDS011;3222;48.858;10.128;2023-07-30T06:10:07;2.90;;;2.70;;
6378;SDS011;3222;48.858;10.128;2023-07-30T06:12:33;2.90;;;2.60;;
6378;SDS011;3222;48.858;10.128;2023-07-30T06:14:59;3.60;;;2.87;;
6378;SDS011;3222;48.858;10.128;2023-07-30T06:17:24;2.80;;;2.47;;
6378;SDS011;3222;48.858;10.128;2023-07-30T06:19:50;4.13;;;2.83;;
6378;SDS011;3222;48.858;10.128;2023-07-30T06:22:15;3.50;;;3.20;;
6378;SDS011;3222;48.858;10.128;2023-07-30T06:24:41;3.07;;;2.87;;
6378;SDS011;3222;48.858;10.128;2023-07-30T06:27:07;4.80;;;4.30;;
6378;SDS011;3222;48.858;10.128;2023-07-30T06:29:34;3.80;;;3.40;;
6378;SDS011;3222;48.858;10.128;2023-07-30T06:32:00;4.18;;;3.70;;
6378;SDS011;3222;48.858;10.128;2023-07-30T06:34:26;4.37;;;3.53;;
6378;SDS011;3222;48.858;10.128;2023-07-30T06:36:52;5.93;;;3.80;;
6378;SDS011;3222;48.858;10.128;2023-07-30T06:39:17;4.83;;;3.40;;
6378;SDS011;3222;48.858;10.128;2023-07-30T06:41:43;4.97;;;3.50;;
6378;SDS011;3222;48.858;10.128;2023-07-30T06:44:08;2.97;;;2.50;;
6378;SDS011;3222;48.858;10.128;2023-07-30T06:46:34;2.83;;;2.50;;
6378;SDS011;3222;48.858;10.128;2023-07-30T06:49:00;3.20;;;2.70;;
6378;SDS011;3222;48.858;10.128;2023-07-30T06:51:26;4.53;;;2.60;;
6378;SDS011;3222;48.858;10.128;2023-07-30T06:53:52;2.70;;;2.50;;
6378;SDS011;3222;48.858;10.128;2023-07-30T06:56:17;2.70;;;2.50;;
6378;SDS011;3222;48.858;10.128;2023-07-30T06:58:43;2.30;;;2.10;;
6378;SDS011;3222;48.858;10.128;2023-07-30T07:01:09;2.30;;;2.20;;
6378;SDS011;3222;48.858;10.128;2023-07-30T07:03:34;3.73;;;2.47;;
6378;SDS011;3222;48.858;10.128;2023-07-30T07:06:00;4.60;;;2.27;;
6378;SDS011;3222;48.858;10.128;2023-07-30T07:08:26;2.43;;;2.23;;
6378;SDS011;3222;48.858;10.128;2023-07-30T07:10:52;1.97;;;1.87;;
6378;SDS011;3222;48.858;10.128;2023-07-30T07:13:18;2.27;;;2.07;;
6378;SDS011;3222;48.858;10.128;2023-07-30T07:15:44;2.73;;;2.10;;
6378;SDS011;3222;48.858;10.128;2023-07-30T07:18:10;2.30;;;2.10;;
6378;SDS011;3222;48.858;10.128;2023-07-30T07:20:36;2.20;;;2.10;;
6378;SDS011;3222;48.858;10.128;2023-07-30T07:23:02;2.93;;;1.80;;
6378;SDS011;3222;48.858;10.128;2023-07-30T07:25:28;2.30;;;2.20;;
6378;SDS011;3222;48.858;10.128;2023-07-30T07:27:54;2.07;;;1.97;;
6378;SDS011;3222;48.858;10.128;2023-07-30T07:30:20;2.70;;;2.50;;
6378;SDS011;3222;48.858;10.128;2023-07-30T07:32:45;2.40;;;2.10;;
6378;SDS011;3222;48.858;10.128;2023-07-30T07:35:15;2.80;;;2.60;;
6378;SDS011;3222;48.858;10.128;2023-07-30T07:37:45;2.30;;;2.10;;
6378;SDS011;3222;48.858;10.128;2023-07-30T07:40:11;3.33;;;2.53;;
6378;SDS011;3222;48.858;10.128;2023-07-30T07:42:37;2.90;;;2.70;;
6378;SDS011;3222;48.858;10.128;2023-07-30T07:45:04;3.13;;;2.83;;
6378;SDS011;3222;48.858;10.128;2023-07-30T07:47:31;2.77;;;2.47;;
6378;SDS011;3222;48.858;10.128;2023-07-30T07:49:56;3.07;;;2.70;;
6378;SDS011;3222;48.858;10.128;2023-07-30T07:52:22;3.00;;;2.50;;
6378;SDS011;3222;48.858;10.128;2023-07-30T07:54:47;3.03;;;2.60;;
6378;SDS011;3222;48.858;10.128;2023-07-30T07:57:13;3.67;;;2.57;;
6378;SDS011;3222;48.858;10.128;2023-07-30T07:59:39;3.10;;;2.73;;
6378;SDS011;3222;48.858;10.128;2023-07-30T08:02:06;2.70;;;2.50;;
6378;SDS011;3222;48.858;10.128;2023-07-30T08:04:32;3.03;;;2.60;;
6378;SDS011;3222;48.858;10.128;2023-07-30T08:06:58;2.70;;;2.50;;
6378;SDS011;3222;48.858;10.128;2023-07-30T08:09:28;2.73;;;2.43;;
6378;SDS011;3222;48.858;10.128;2023-07-30T08:11:53;2.60;;;2.40;;
6378;SDS011;3222;48.858;10.128;2023-07-30T08:14:19;5.50;;;2.60;;
6378;SDS011;3222;48.858;10.128;2023-07-30T08:16:45;3.10;;;2.70;;
6378;SDS011;3222;48.858;10.128;2023-07-30T08:19:10;2.60;;;2.40;;
6378;SDS011;3222;48.858;10.128;2023-07-30T08:21:36;2.57;;;2.37;;
6378;SDS011;3222;48.858;10.128;2023-07-30T08:24:02;2.50;;;2.30;;
6378;SDS011;3222;48.858;10.128;2023-07-30T08:26:28;2.67;;;2.47;;
6378;SDS011;3222;48.858;10.128;2023-07-30T08:28:53;2.30;;;2.20;;
6378;SDS011;3222;48.858;10.128;2023-07-30T08:31:19;2.00;;;1.90;;
6378;SDS011;3222;48.858;10.128;2023-07-30T08:33:44;2.43;;;2.23;;
6378;SDS011;3222;48.858;10.128;2023-07-30T08:36:10;3.23;;;1.97;;
6378;SDS011;3222;48.858;10.128;2023-07-30T08:38:36;3.00;;;2.07;;
6378;SDS011;3222;48.858;10.128;2023-07-30T08:41:01;2.37;;;2.23;;
6378;SDS011;3222;48.858;10.128;2023-07-30T08:43:27;2.27;;;2.07;;
6378;SDS011;3222;48.858;10.128;2023-07-30T08:45:53;2.43;;;1.70;;
6378;SDS011;3222;48.858;10.128;2023-07-30T08:48:19;1.90;;;1.70;;
6378;SDS011;3222;48.858;10.128;2023-07-30T08:50:45;1.80;;;1.70;;
6378;SDS011;3222;48.858;10.128;2023-07-30T08:53:13;2.77;;;1.70;;
6378;SDS011;3222;48.858;10.128;2023-07-30T08:55:39;2.23;;;1.80;;
6378;SDS011;3222;48.858;10.128;2023-07-30T08:58:06;1.80;;;1.70;;
6378;SDS011;3222;48.858;10.128;2023-07-30T09:00:37;2.60;;;1.80;;
6378;SDS011;3222;48.858;10.128;2023-07-30T09:03:05;1.70;;;1.60;;
6378;SDS011;3222;48.858;10.128;2023-07-30T09:05:33;1.70;;;1.60;;
6378;SDS011;3222;48.858;10.128;2023-07-30T09:07:59;1.93;;;1.83;;
6378;SDS011;3222;48.858;10.128;2023-07-30T09:10:25;2.60;;;1.90;;
6378;SDS011;3222;48.858;10.128;2023-07-30T09:12:52;2.33;;;1.40;;
6378;SDS011;3222;48.858;10.128;2023-07-30T09:15:19;1.53;;;1.43;;
6378;SDS011;3222;48.858;10.128;2023-07-30T09:18:05;1.97;;;1.77;;
6378;SDS011;3222;48.858;10.128;2023-07-30T09:20:41;2.17;;;1.57;;
6378;SDS011;3222;48.858;10.128;2023-07-30T09:23:08;1.60;;;1.50;;
6378;SDS011;3222;48.858;10.128;2023-07-30T09:25:35;1.70;;;1.60;;
6378;SDS011;3222;48.858;10.128;2023-07-30T09:28:01;2.97;;;2.37;;
6378;SDS011;3222;48.858;10.128;2023-07-30T09:30:27;1.70;;;1.60;;
6378;SDS011;3222;48.858;10.128;2023-07-30T09:32:54;2.20;;;2.00;;
6378;SDS011;3222;48.858;10.128;2023-07-30T09:35:21;3.03;;;1.53;;
6378;SDS011;3222;48.858;10.128;2023-07-30T09:37:50;1.63;;;1.50;;
6378;SDS011;3222;48.858;10.128;2023-07-30T09:40:31;1.87;;;1.77;;
6378;SDS011;3222;48.858;10.128;2023-07-30T09:43:01;1.60;;;1.50;;
6378;SDS011;3222;48.858;10.128;2023-07-30T09:45:28;2.00;;;1.87;;
6378;SDS011;3222;48.858;10.128;2023-07-30T09:47:57;1.53;;;1.43;;
6378;SDS011;3222;48.858;10.128;2023-07-30T09:50:23;1.90;;;1.70;;
6378;SDS011;3222;48.858;10.128;2023-07-30T09:52:49;1.77;;;1.67;;
6378;SDS011;3222;48.858;10.128;2023-07-30T09:55:15;1.70;;;1.60;;
6378;SDS011;3222;48.858;10.128;2023-07-30T09:57:43;2.17;;;1.77;;
6378;SDS011;3222;48.858;10.128;2023-07-30T10:00:09;1.70;;;1.60;;
6378;SDS011;3222;48.858;10.128;2023-07-30T10:02:39;1.80;;;1.70;;
6378;SDS011;3222;48.858;10.128;2023-07-30T10:05:10;1.70;;;1.60;;
6378;SDS011;3222;48.858;10.128;2023-07-30T10:07:44;2.77;;;2.00;;
6378;SDS011;3222;48.858;10.128;2023-07-30T10:10:18;1.97;;;1.80;;
6378;SDS011;3222;48.858;10.128;2023-07-30T10:12:46;2.60;;;1.67;;
6378;SDS011;3222;48.858;10.128;2023-07-30T10:15:17;1.93;;;1.83;;
6378;SDS011;3222;48.858;10.128;2023-07-30T10:17:45;1.90;;;1.80;;
6378;SDS011;3222;48.858;10.128;2023-07-30T10:20:20;2.23;;;1.83;;
6378;SDS011;3222;48.858;10.128;2023-07-30T10:22:55;4.40;;;2.20;;
6378;SDS011;3222;48.858;10.128;2023-07-30T10:25:22;3.00;;;2.37;;
6378;SDS011;3222;48.858;10.128;2023-07-30T10:30:55;2.87;;;1.93;;
6378;SDS011;3222;48.858;10.128;2023-07-30T10:33:22;3.33;;;2.03;;
6378;SDS011;3222;48.858;10.128;2023-07-30T10:35:48;4.47;;;2.00;;
6378;SDS011;3222;48.858;10.128;2023-07-30T10:38:20;4.30;;;1.90;;
6378;SDS011;3222;48.858;10.128;2023-07-30T10:40:59;1.70;;;1.60;;
6378;SDS011;3222;48.858;10.128;2023-07-30T10:43:36;4.27;;;2.00;;
6378;SDS011;3222;48.858;10.128;2023-07-30T10:46:07;2.10;;;2.00;;
6378;SDS011;3222;48.858;10.128;2023-07-30T10:48:36;1.90;;;1.80;;
6378;SDS011;3222;48.858;10.128;2023-07-30T10:51:05;2.30;;;1.77;;
6378;SDS011;3222;48.858;10.128;2023-07-30T10:53:32;1.90;;;1.80;;
6378;SDS011;3222;48.858;10.128;2023-07-30T10:55:59;2.50;;;2.30;;
6378;SDS011;3222;48.858;10.128;2023-07-30T10:58:29;3.77;;;2.10;;
6378;SDS011;3222;48.858;10.128;2023-07-30T11:00:56;2.13;;;2.00;;
6378;SDS011;3222;48.858;10.128;2023-07-30T11:03:24;2.60;;;2.40;;
6378;SDS011;3222;48.858;10.128;2023-07-30T11:05:53;3.23;;;2.00;;
6378;SDS011;3222;48.858;10.128;2023-07-30T11:08:21;2.57;;;2.17;;
6378;SDS011;3222;48.858;10.128;2023-07-30T11:10:57;3.03;;;2.33;;
6378;SDS011;3222;48.858;10.128;2023-07-30T11:13:22;5.47;;;2.40;;
6378;SDS011;3222;48.858;10.128;2023-07-30T11:15:48;3.43;;;1.90;;
6378;SDS011;3222;48.858;10.128;2023-07-30T11:18:14;3.20;;;2.37;;
6378;SDS011;3222;48.858;10.128;2023-07-30T11:20:39;2.20;;;2.07;;
6378;SDS011;3222;48.858;10.128;2023-07-30T11:23:26;2.73;;;2.40;;
6378;SDS011;3222;48.858;10.128;2023-07-30T11:25:51;2.77;;;2.43;;
6378;SDS011;3222;48.858;10.128;2023-07-30T11:28:29;3.87;;;2.20;;
6378;SDS011;3222;48.858;10.128;2023-07-30T11:31:00;2.77;;;2.33;;
6378;SDS011;3222;48.858;10.128;2023-07-30T11:33:28;2.73;;;2.53;;
6378;SDS011;3222;48.858;10.128;2023-07-30T11:35:54;3.13;;;2.70;;
6378;SDS011;3222;48.858;10.128;2023-07-30T11:38:24;2.30;;;2.10;;
6378;SDS011;3222;48.858;10.128;2023-07-30T11:40:51;3.37;;;2.50;;
6378;SDS011;3222;48.858;10.128;2023-07-30T11:43:18;2.40;;;2.20;;
6378;SDS011;3222;48.858;10.128;2023-07-30T11:45:44;5.93;;;2.37;;
6378;SDS011;3222;48.858;10.128;2023-07-30T11:48:10;2.40;;;2.20;;
6378;SDS011;3222;48.858;10.128;2023-07-30T11:50:46;4.80;;;3.50;;
6378;SDS011;3222;48.858;10.128;2023-07-30T11:53:12;3.63;;;2.93;;
6378;SDS011;3222;48.858;10.128;2023-07-30T11:55:38;6.13;;;3.23;;
6378;SDS011;3222;48.858;10.128;2023-07-30T11:58:05;3.57;;;2.73;;
6378;SDS011;3222;48.858;10.128;2023-07-30T12:00:32;3.20;;;2.80;;
6378;SDS011;3222;48.858;10.128;2023-07-30T12:03:02;2.90;;;2.60;;
6378;SDS011;3222;48.858;10.128;2023-07-30T12:05:32;2.30;;;2.10;;
6378;SDS011;3222;48.858;10.128;2023-07-30T12:07:59;3.93;;;2.20;;
6378;SDS011;3222;48.858;10.128;2023-07-30T12:10:28;2.57;;;2.37;;
6378;SDS011;3222;48.858;10.128;2023-07-30T12:13:10;2.63;;;2.40;;
6378;SDS011;3222;48.858;10.128;2023-07-30T12:15:37;2.40;;;2.20;;
6378;SDS011;3222;48.858;10.128;2023-07-30T12:18:02;2.63;;;2.13;;
6378;SDS011;3222;48.858;10.128;2023-07-30T12:20:28;2.37;;;2.20;;
6378;SDS011;3222;48.858;10.128;2023-07-30T12:22:54;2.87;;;2.37;;
6378;SDS011;3222;48.858;10.128;2023-07-30T12:25:19;5.43;;;2.30;;
6378;SDS011;3222;48.858;10.128;2023-07-30T12:27:45;2.10;;;2.00;;
6378;SDS011;3222;48.858;10.128;2023-07-30T12:30:11;3.87;;;2.13;;
6378;SDS011;3222;48.858;10.128;2023-07-30T12:32:36;3.03;;;2.07;;
6378;SDS011;3222;48.858;10.128;2023-07-30T12:35:02;2.00;;;1.90;;
6378;SDS011;3222;48.858;10.128;2023-07-30T12:37:28;2.40;;;2.13;;
6378;SDS011;3222;48.858;10.128;2023-07-30T12:39:54;2.37;;;2.10;;
6378;SDS011;3222;48.858;10.128;2023-07-30T12:42:19;2.90;;;2.23;;
6378;SDS011;3222;48.858;10.128;2023-07-30T12:44:45;2.43;;;2.10;;
6378;SDS011;3222;48.858;10.128;2023-07-30T12:47:11;2.47;;;1.87;;
6378;SDS011;3222;48.858;10.128;2023-07-30T12:49:36;3.90;;;1.83;;
6378;SDS011;3222;48.858;10.128;2023-07-30T12:52:02;3.90;;;1.90;;
6378;SDS011;3222;48.858;10.128;2023-07-30T12:54:28;2.07;;;1.87;;
6378;SDS011;3222;48.858;10.128;2023-07-30T12:56:53;2.10;;;2.00;;
6378;SDS011;3222;48.858;10.128;2023-07-30T12:59:19;3.03;;;2.17;;
6378;SDS011;3222;48.858;10.128;2023-07-30T13:01:45;2.93;;;1.70;;
6378;SDS011;3222;48.858;10.128;2023-07-30T13:04:10;1.90;;;1.63;;
6378;SDS011;3222;48.858;10.128;2023-07-30T13:06:36;3.43;;;2.10;;
6378;SDS011;3222;48.858;10.128;2023-07-30T13:09:01;3.00;;;2.67;;
6378;SDS011;3222;48.858;10.128;2023-07-30T13:11:27;3.63;;;2.50;;
6378;SDS011;3222;48.858;10.128;2023-07-30T13:13:53;5.50;;;2.23;;
6378;SDS011;3222;48.858;10.128;2023-07-30T13:16:18;2.30;;;2.07;;
6378;SDS011;3222;48.858;10.128;2023-07-30T13:18:44;1.83;;;1.73;;
6378;SDS011;3222;48.858;10.128;2023-07-30T13:21:09;2.40;;;2.10;;
6378;SDS011;3222;48.858;10.128;2023-07-30T13:23:35;2.20;;;1.97;;
6378;SDS011;3222;48.858;10.128;2023-07-30T13:26:01;2.17;;;1.97;;
6378;SDS011;3222;48.858;10.128;2023-07-30T13:28:28;2.60;;;2.13;;
6378;SDS011;3222;48.858;10.128;2023-07-30T13:30:53;2.73;;;2.10;;
6378;SDS011;3222;48.858;10.128;2023-07-30T13:33:19;1.93;;;1.73;;
6378;SDS011;3222;48.858;10.128;2023-07-30T13:35:45;4.00;;;1.70;;
6378;SDS011;3222;48.858;10.128;2023-07-30T13:38:10;5.77;;;2.70;;
6378;SDS011;3222;48.858;10.128;2023-07-30T13:40:36;1.83;;;1.73;;
6378;SDS011;3222;48.858;10.128;2023-07-30T13:43:01;4.23;;;1.97;;
6378;SDS011;3222;48.858;10.128;2023-07-30T13:45:27;2.57;;;2.07;;
6378;SDS011;3222;48.858;10.128;2023-07-30T13:47:53;1.97;;;1.67;;
6378;SDS011;3222;48.858;10.128;2023-07-30T13:50:19;3.33;;;2.10;;
6378;SDS011;3222;48.858;10.128;2023-07-30T13:52:44;1.90;;;1.80;;
6378;SDS011;3222;48.858;10.128;2023-07-30T13:55:11;1.90;;;1.73;;
6378;SDS011;3222;48.858;10.128;2023-07-30T13:57:37;1.60;;;1.50;;
6378;SDS011;3222;48.858;10.128;2023-07-30T14:00:03;2.07;;;1.87;;
6378;SDS011;3222;48.858;10.128;2023-07-30T14:02:29;2.20;;;2.00;;
6378;SDS011;3222;48.858;10.128;2023-07-30T14:04:55;3.23;;;2.00;;
6378;SDS011;3222;48.858;10.128;2023-07-30T14:07:21;1.67;;;1.57;;
6378;SDS011;3222;48.858;10.128;2023-07-30T14:09:46;1.90;;;1.80;;
6378;SDS011;3222;48.858;10.128;2023-07-30T14:12:12;1.90;;;1.80;;
6378;SDS011;3222;48.858;10.128;2023-07-30T14:14:37;2.30;;;2.03;;
6378;SDS011;3222;48.858;10.128;2023-07-30T14:17:03;1.90;;;1.80;;
6378;SDS011;3222;48.858;10.128;2023-07-30T14:19:31;2.53;;;1.73;;
6378;SDS011;3222;48.858;10.128;2023-07-30T14:21:58;1.97;;;1.80;;
6378;SDS011;3222;48.858;10.128;2023-07-30T14:24:23;2.27;;;1.90;;
6378;SDS011;3222;48.858;10.128;2023-07-30T14:26:49;4.23;;;1.93;;
6378;SDS011;3222;48.858;10.128;2023-07-30T14:29:15;2.33;;;2.13;;
6378;SDS011;3222;48.858;10.128;2023-07-30T14:31:40;3.50;;;1.77;;
6378;SDS011;3222;48.858;10.128;2023-07-30T14:34:06;2.17;;;1.57;;
6378;SDS011;3222;48.858;10.128;2023-07-30T14:36:31;11.80;;;6.00;;
6378;SDS011;3222;48.858;10.128;2023-07-30T14:38:57;7.87;;;6.27;;
6378;SDS011;3222;48.858;10.128;2023-07-30T14:41:23;7.27;;;5.20;;
6378;SDS011;3222;48.858;10.128;2023-07-30T14:43:48;4.07;;;3.67;;
6378;SDS011;3222;48.858;10.128;2023-07-30T14:46:14;4.17;;;2.90;;
6378;SDS011;3222;48.858;10.128;2023-07-30T14:48:41;2.83;;;2.50;;
6378;SDS011;3222;48.858;10.128;2023-07-30T14:51:07;2.30;;;1.83;;
6378;SDS011;3222;48.858;10.128;2023-07-30T14:53:33;3.30;;;2.10;;
6378;SDS011;3222;48.858;10.128;2023-07-30T14:55:59;1.67;;;1.57;;
6378;SDS011;3222;48.858;10.128;2023-07-30T14:58:25;2.67;;;2.07;;
6378;SDS011;3222;48.858;10.128;2023-07-30T15:00:50;1.93;;;1.83;;
6378;SDS011;3222;48.858;10.128;2023-07-30T15:03:16;2.73;;;1.60;;